Time;durP1;ratioP1;P1;durP2;ratioP2;P2;SDS_P1;SDS_P2;PMS_P1;PMS_P2;Temp;Humidity;BMP_temperature;BMP_pressure;BME280_temperature;BME280_humidity;BME280_pressure;Samples;Min_cycle;Max_cycle;Signal;HPM_P1;HPM_P2
2023/03/10 04:00:21;;;;;;;35.75;12.35;;;0.90;99.90;;;;;;6267610;22;20019;-75
2023/03/10 04:02:47;;;;;;;35.17;13.27;;;0.90;99.90;;;;;;6307199;22;20015;-77
2023/03/10 04:05:12;;;;;;;36.88;12.35;;;0.90;99.90;;;;;;6279751;22;20105;-76
2023/03/10 04:07:39;;;;;;;34.88;12.77;;;0.90;99.90;;;;;;6253980;22;20014;-77
2023/03/10 04:10:11;;;;;;;36.65;12.77;;;0.90;99.90;;;;;;6307315;22;20046;-75
2023/03/10 04:12:36;;;;;;;32.65;12.25;;;0.80;99.90;;;;;;6249755;22;20406;-76
2023/03/10 04:15:03;;;;;;;38.67;14.77;;;0.90;99.90;;;;;;6249082;22;20039;-77
2023/03/10 04:17:29;;;;;;;31.50;12.45;;;0.90;99.90;;;;;;6249094;22;20095;-76
2023/03/10 04:19:54;;;;;;;34.45;12.57;;;0.90;99.90;;;;;;6248928;22;20421;-76
2023/03/10 04:22:20;;;;;;;30.27;12.27;;;0.90;99.90;;;;;;6275986;22;20004;-77
2023/03/10 04:24:45;;;;;;;35.75;13.23;;;0.90;99.90;;;;;;6275974;22;20286;-75
2023/03/10 04:27:11;;;;;;;34.25;12.05;;;0.90;99.90;;;;;;6248797;22;20011;-76
2023/03/10 04:29:37;;;;;;;34.17;12.18;;;0.90;99.90;;;;;;6248839;22;20017;-76
2023/03/10 04:32:03;;;;;;;35.60;11.43;;;0.90;99.90;;;;;;6248825;22;20012;-77
2023/03/10 04:34:29;;;;;;;34.35;12.27;;;0.90;99.90;;;;;;6248972;22;20019;-77
2023/03/10 04:36:55;;;;;;;32.92;12.70;;;0.90;99.90;;;;;;6276569;22;20007;-77
2023/03/10 04:39:21;;;;;;;37.08;12.27;;;0.90;99.90;;;;;;6248996;22;20463;-77
2023/03/10 04:41:46;;;;;;;36.20;11.77;;;0.90;99.90;;;;;;6248725;22;20020;-76
2023/03/10 04:44:12;;;;;;;34.20;11.90;;;0.80;99.90;;;;;;6248953;22;20015;-76
2023/03/10 04:46:38;;;;;;;37.22;12.23;;;0.80;99.90;;;;;;6248826;22;20018;-76
2023/03/10 04:49:03;;;;;;;31.98;11.45;;;0.80;99.90;;;;;;6276281;22;20012;-77
2023/03/10 04:51:29;;;;;;;29.60;11.48;;;0.80;99.90;;;;;;6248929;22;20115;-75
2023/03/10 04:53:56;;;;;;;33.30;11.77;;;0.80;99.90;;;;;;6248957;22;20012;-77
2023/03/10 04:56:22;;;;;;;29.33;12.20;;;0.80;99.90;;;;;;6276295;22;20004;-76
2023/03/10 04:58:48;;;;;;;31.38;12.05;;;0.80;99.90;;;;;;6275908;22;20016;-75
2023/03/10 05:01:14;;;;;;;32.53;11.93;;;0.80;99.90;;;;;;6248617;22;20058;-76
2023/03/10 05:03:40;;;;;;;32.20;11.80;;;0.80;99.90;;;;;;6248833;22;20060;-76
2023/03/10 05:06:15;;;;;;;34.50;12.38;;;0.80;99.90;;;;;;6249731;22;20441;-77
2023/03/10 05:08:41;;;;;;;33.67;11.77;;;0.80;99.90;;;;;;6276294;22;20086;-75
2023/03/10 05:11:07;;;;;;;36.17;12.55;;;0.80;99.90;;;;;;6248834;22;20019;-75
2023/03/10 05:13:33;;;;;;;31.75;10.93;;;0.80;99.90;;;;;;6248823;22;20318;-76
2023/03/10 05:15:59;;;;;;;30.30;11.45;;;0.80;99.90;;;;;;6248751;22;20018;-75
2023/03/10 05:18:24;;;;;;;32.28;11.50;;;0.80;99.90;;;;;;6250261;22;20016;-76
2023/03/10 05:20:55;;;;;;;34.08;12.10;;;0.80;99.90;;;;;;6276503;22;20008;-77
2023/03/10 05:23:21;;;;;;;36.15;12.13;;;0.90;99.90;;;;;;6250236;22;20030;-76
2023/03/10 05:25:48;;;;;;;37.47;12.95;;;0.80;99.90;;;;;;6250732;22;20016;-77
2023/03/10 05:28:13;;;;;;;36.80;13.60;;;0.90;99.90;;;;;;6250595;22;20083;-75
2023/03/10 05:30:39;;;;;;;35.47;13.02;;;0.90;99.90;;;;;;6250584;22;20488;-77
2023/03/10 05:33:05;;;;;;;37.58;13.38;;;0.90;99.90;;;;;;6250728;22;20015;-75
2023/03/10 05:35:31;;;;;;;36.78;12.10;;;0.90;99.90;;;;;;6250603;22;20012;-77
2023/03/10 05:37:56;;;;;;;35.83;13.38;;;0.90;99.90;;;;;;6277715;22;20015;-76
2023/03/10 05:40:22;;;;;;;43.78;14.27;;;0.90;99.90;;;;;;6278124;22;20333;-77
2023/03/10 05:42:49;;;;;;;42.38;13.98;;;0.90;99.90;;;;;;6250577;22;20015;-77
2023/03/10 05:45:15;;;;;;;41.00;14.68;;;0.90;99.90;;;;;;6277540;22;20008;-76
2023/03/10 05:47:41;;;;;;;30.33;11.50;;;0.90;99.90;;;;;;6250239;22;20066;-77
2023/03/10 05:50:08;;;;;;;37.83;13.48;;;0.90;99.90;;;;;;6277732;22;20019;-76
2023/03/10 05:52:40;;;;;;;37.85;15.07;;;0.90;99.90;;;;;;6250280;22;20081;-76
2023/03/10 05:55:07;;;;;;;38.08;13.27;;;0.90;99.90;;;;;;6250499;22;20017;-77
2023/03/10 05:57:32;;;;;;;33.00;13.10;;;0.90;99.90;;;;;;6250319;22;20467;-76
2023/03/10 05:59:58;;;;;;;46.13;14.63;;;0.90;99.90;;;;;;6250170;22;20018;-76
2023/03/10 06:02:24;;;;;;;45.00;15.75;;;0.90;99.90;;;;;;6250278;22;20016;-77
2023/03/10 06:04:49;;;;;;;42.03;14.32;;;0.90;99.90;;;;;;6277294;22;20483;-76
2023/03/10 06:07:15;;;;;;;50.13;16.13;;;0.90;99.90;;;;;;6277251;22;20087;-76
2023/03/10 06:09:40;;;;;;;43.55;16.40;;;0.90;99.90;;;;;;6250152;22;20092;-76
2023/03/10 06:12:06;;;;;;;46.83;16.30;;;1.00;99.90;;;;;;6250488;22;20500;-76
2023/03/10 06:14:32;;;;;;;49.13;16.17;;;1.00;99.90;;;;;;6250258;22;20016;-77
2023/03/10 06:16:57;;;;;;;43.42;15.30;;;0.90;99.90;;;;;;6277756;22;20084;-75
2023/03/10 06:19:24;;;;;;;52.65;17.38;;;0.90;99.90;;;;;;6224868;22;20432;-78
2023/03/10 06:21:50;;;;;;;49.22;17.13;;;1.00;99.90;;;;;;6250080;22;20011;-76
2023/03/10 06:24:16;;;;;;;58.00;18.88;;;0.90;99.90;;;;;;6249961;22;20047;-77
2023/03/10 06:26:42;;;;;;;57.85;18.38;;;0.90;99.90;;;;;;6250221;22;20015;-77
2023/03/10 06:29:11;;;;;;;58.47;19.23;;;1.00;99.90;;;;;;6249528;22;20007;-80
2023/03/10 06:31:36;;;;;;;51.25;16.80;;;1.00;99.90;;;;;;6249677;22;20012;-78
2023/03/10 06:34:02;;;;;;;56.83;18.67;;;0.90;99.90;;;;;;6276404;22;20373;-77
2023/03/10 06:36:31;;;;;;;59.58;19.20;;;0.90;99.90;;;;;;6250093;22;20380;-76
2023/03/10 06:38:57;;;;;;;55.50;17.65;;;0.90;99.90;;;;;;6277502;22;20314;-76
2023/03/10 06:41:23;;;;;;;65.85;20.63;;;1.00;99.90;;;;;;6224793;22;20022;-77
2023/03/10 06:43:49;;;;;;;67.22;20.83;;;0.90;99.90;;;;;;6250035;22;20318;-76
2023/03/10 07:05:28;;;;;;;73.78;21.45;;;1.10;99.90;;;;;;6339888;22;20318;-77
2023/03/10 07:07:54;;;;;;;74.78;21.40;;;1.10;99.90;;;;;;6339345;22;20011;-78
2023/03/10 07:10:20;;;;;;;78.30;22.80;;;1.10;99.90;;;;;;6311299;22;20501;-77
2023/03/10 07:12:51;;;;;;;77.88;22.83;;;1.10;99.90;;;;;;6311405;22;20081;-78
2023/03/10 07:15:17;;;;;;;80.68;22.52;;;1.10;99.90;;;;;;6311416;22;20011;-77
2023/03/10 07:17:43;;;;;;;69.45;22.27;;;1.10;99.90;;;;;;6311332;22;20046;-79
2023/03/10 07:20:10;;;;;;;81.35;23.13;;;1.10;99.90;;;;;;6311565;22;20019;-78
2023/03/10 07:22:35;;;;;;;74.68;20.90;;;1.10;99.90;;;;;;6311244;22;20014;-78
2023/03/10 07:25:01;;;;;;;60.80;19.70;;;1.10;99.90;;;;;;6311067;22;20324;-78
2023/03/10 07:27:26;;;;;;;69.15;21.98;;;1.10;99.90;;;;;;6311015;22;20389;-77
2023/03/10 07:29:52;;;;;;;70.65;21.98;;;1.10;99.90;;;;;;6311094;22;20064;-79
2023/03/10 07:32:17;;;;;;;68.22;22.27;;;1.10;99.90;;;;;;6311037;22;20006;-78
2023/03/10 07:34:43;;;;;;;69.38;20.85;;;1.10;99.90;;;;;;6311039;22;20015;-78
2023/03/10 07:37:09;;;;;;;75.38;21.83;;;1.10;99.90;;;;;;6311252;22;20014;-78
2023/03/10 07:39:35;;;;;;;74.38;22.98;;;1.10;99.90;;;;;;6311067;22;20093;-77
2023/03/10 07:42:00;;;;;;;70.50;22.45;;;1.10;99.90;;;;;;6311162;22;20042;-79
2023/03/10 07:44:26;;;;;;;65.72;21.95;;;1.10;99.90;;;;;;6312332;22;20007;-78
2023/03/10 07:46:52;;;;;;;65.53;21.67;;;1.10;99.90;;;;;;6310918;22;20011;-78
2023/03/10 07:49:17;;;;;;;72.43;22.17;;;1.20;99.90;;;;;;6339328;22;20021;-78
2023/03/10 07:51:43;;;;;;;63.25;20.42;;;1.20;99.90;;;;;;6285564;22;20006;-77
2023/03/10 07:54:10;;;;;;;69.88;20.73;;;1.20;99.90;;;;;;6311508;22;20343;-77
2023/03/10 07:56:36;;;;;;;58.33;20.17;;;1.20;99.90;;;;;;6338919;22;20026;-79
2023/03/10 07:59:02;;;;;;;59.80;20.02;;;1.20;99.90;;;;;;6339481;22;20435;-78
2023/03/10 08:01:27;;;;;;;62.88;19.13;;;1.20;99.90;;;;;;6338704;22;20011;-77
2023/03/10 08:03:53;;;;;;;64.63;19.77;;;1.20;99.90;;;;;;6310916;22;20018;-77
2023/03/10 08:06:22;;;;;;;57.97;18.27;;;1.20;99.90;;;;;;6310901;22;20093;-77
2023/03/10 08:08:48;;;;;;;58.60;18.70;;;1.20;99.90;;;;;;6311358;22;20093;-78
2023/03/10 08:11:14;;;;;;;58.85;19.48;;;1.20;99.90;;;;;;6310673;22;20321;-77
2023/03/10 08:13:40;;;;;;;49.53;17.27;;;1.20;99.90;;;;;;6310922;22;20081;-79
2023/03/10 08:16:07;;;;;;;51.22;17.58;;;1.30;99.90;;;;;;6339278;22;20006;-78
2023/03/10 08:18:33;;;;;;;48.67;16.67;;;1.30;99.90;;;;;;6285250;22;20019;-76
2023/03/10 08:20:58;;;;;;;48.22;16.60;;;1.30;99.90;;;;;;6310984;22;20504;-78
2023/03/10 08:23:24;;;;;;;50.80;16.90;;;1.30;99.90;;;;;;6285045;22;20018;-78
2023/03/10 08:25:50;;;;;;;48.30;16.05;;;1.30;99.90;;;;;;6310762;22;20014;-78
2023/03/10 08:28:16;;;;;;;44.35;15.98;;;1.30;99.90;;;;;;6310635;22;20052;-78
2023/03/10 08:30:42;;;;;;;50.85;15.20;;;1.30;99.90;;;;;;6310497;22;20007;-77
2023/03/10 08:33:08;;;;;;;50.88;16.73;;;1.30;99.90;;;;;;6310933;22;20014;-78
2023/03/10 08:35:37;;;;;;;47.13;15.98;;;1.30;99.90;;;;;;6310571;22;20332;-77
2023/03/10 08:38:03;;;;;;;46.83;16.20;;;1.30;99.90;;;;;;6284915;22;20382;-79
2023/03/10 08:40:30;;;;;;;46.58;15.00;;;1.30;99.90;;;;;;6338563;22;20068;-77
2023/03/10 08:42:56;;;;;;;57.92;17.63;;;1.30;99.90;;;;;;6310485;22;20011;-76
2023/03/10 08:45:22;;;;;;;48.20;15.95;;;1.30;99.90;;;;;;6310472;22;20390;-77
2023/03/10 08:47:48;;;;;;;53.13;16.90;;;1.30;99.90;;;;;;6310807;22;20034;-77
2023/03/10 08:50:13;;;;;;;46.70;15.70;;;1.30;99.90;;;;;;6314042;22;20440;-74
2023/03/10 08:52:40;;;;;;;50.13;16.85;;;1.30;99.90;;;;;;6317203;22;20315;-75
2023/03/10 08:55:06;;;;;;;43.58;15.63;;;1.40;99.90;;;;;;6343919;22;20367;-75
2023/03/10 08:57:31;;;;;;;49.58;16.92;;;1.40;99.90;;;;;;6313442;22;20033;-73
2023/03/10 08:59:57;;;;;;;49.28;17.13;;;1.40;99.90;;;;;;6288050;22;20050;-77
2023/03/10 09:02:24;;;;;;;49.28;16.88;;;1.40;99.90;;;;;;6287428;22;20014;-77
2023/03/10 09:04:50;;;;;;;48.22;15.85;;;1.40;99.90;;;;;;6312830;22;20015;-77
2023/03/10 09:07:15;;;;;;;47.05;16.02;;;1.40;99.90;;;;;;6313261;22;20038;-77
2023/03/10 09:09:41;;;;;;;45.88;16.27;;;1.40;99.90;;;;;;6311839;22;20036;-78
2023/03/10 09:12:08;;;;;;;39.50;14.60;;;1.40;99.90;;;;;;6311706;22;20344;-77
2023/03/10 09:14:35;;;;;;;40.83;15.52;;;1.40;99.90;;;;;;6312022;22;20011;-76
2023/03/10 09:17:01;;;;;;;44.38;15.32;;;1.40;99.90;;;;;;6310254;22;20007;-78
2023/03/10 09:19:26;;;;;;;49.78;18.02;;;1.50;99.90;;;;;;6285505;22;20328;-78
2023/03/10 09:21:54;;;;;;;44.92;14.77;;;1.50;99.90;;;;;;6311289;22;20006;-78
2023/03/10 09:24:20;;;;;;;43.05;14.90;;;1.50;99.90;;;;;;6311301;22;20082;-77
2023/03/10 09:26:45;;;;;;;45.08;15.48;;;1.40;99.90;;;;;;6311552;22;20476;-78
2023/03/10 09:29:11;;;;;;;37.90;14.50;;;1.50;99.90;;;;;;6311945;22;20019;-77
2023/03/10 09:31:38;;;;;;;41.78;15.50;;;1.50;99.90;;;;;;6312263;22;20444;-77
2023/03/10 09:34:05;;;;;;;43.83;15.43;;;1.50;99.90;;;;;;6312789;22;20010;-78
2023/03/10 09:36:31;;;;;;;40.13;14.45;;;1.50;99.90;;;;;;6312619;22;20010;-77
2023/03/10 09:38:59;;;;;;;39.20;15.45;;;1.40;99.90;;;;;;6312405;22;20139;-78
2023/03/10 09:41:46;;;;;;;43.15;15.57;;;1.40;99.90;;;;;;6340046;22;20017;-77
2023/03/10 09:44:54;;;;;;;40.83;14.80;;;1.50;99.90;;;;;;6312506;22;20019;-78
2023/03/10 09:47:29;;;;;;;38.65;13.98;;;1.50;99.90;;;;;;6312174;22;20042;-78
2023/03/10 09:50:19;;;;;;;45.28;14.90;;;1.40;99.90;;;;;;6286423;22;20006;-76
2023/03/10 09:53:15;;;;;;;39.58;15.65;;;1.40;99.90;;;;;;6312615;22;20006;-77
2023/03/10 09:55:43;;;;;;;52.72;17.73;;;1.40;99.90;;;;;;6312604;22;20014;-78
2023/03/10 09:58:25;;;;;;;46.88;16.05;;;1.40;99.90;;;;;;6340055;22;20033;-78
2023/03/10 10:00:51;;;;;;;49.70;18.60;;;1.40;99.90;;;;;;6312366;22;20042;-79
2023/03/10 10:03:35;;;;;;;53.85;19.60;;;1.40;99.90;;;;;;6312107;22;20022;-79
2023/03/10 10:06:05;;;;;;;48.60;17.25;;;1.40;99.90;;;;;;6313067;22;20043;-77
2023/03/10 10:08:53;;;;;;;55.72;20.08;;;1.40;99.90;;;;;;6312310;22;20050;-78
2023/03/10 10:11:19;;;;;;;52.40;18.70;;;1.40;99.90;;;;;;6312216;22;20014;-79
2023/03/10 10:13:45;;;;;;;52.65;19.23;;;1.40;99.90;;;;;;6340487;22;20003;-78
2023/03/10 10:16:42;;;;;;;54.72;19.00;;;1.40;99.90;;;;;;6340485;22;20011;-79
2023/03/10 10:19:22;;;;;;;54.25;18.42;;;1.40;99.90;;;;;;6311215;22;20014;-77
2023/03/10 10:22:06;;;;;;;54.50;18.20;;;1.40;99.90;;;;;;6340058;22;20014;-79
2023/03/10 10:24:32;;;;;;;58.78;20.90;;;1.40;99.90;;;;;;6312367;22;20470;-78
2023/03/10 10:26:58;;;;;;;58.10;20.08;;;1.30;99.90;;;;;;6311936;22;20011;-78
2023/03/10 10:29:33;;;;;;;59.58;19.90;;;1.30;99.90;;;;;;6311863;22;20090;-78
2023/03/10 10:32:13;;;;;;;60.03;20.05;;;1.30;99.90;;;;;;6311690;22;20011;-78
2023/03/10 10:34:41;;;;;;;47.33;16.65;;;1.30;99.90;;;;;;6311940;22;20010;-77
2023/03/10 10:37:24;;;;;;;53.97;18.52;;;1.30;99.90;;;;;;6339980;22;20003;-79
2023/03/10 10:39:52;;;;;;;49.15;17.02;;;1.30;99.90;;;;;;6339656;22;20312;-78
2023/03/10 10:42:27;;;;;;;48.53;17.80;;;1.20;99.90;;;;;;6311549;22;20467;-79
2023/03/10 10:44:57;;;;;;;48.63;17.73;;;1.20;99.90;;;;;;6339731;22;20011;-77
2023/03/10 10:47:27;;;;;;;50.67;17.15;;;1.20;99.90;;;;;;6311993;22;20015;-78
2023/03/10 10:49:54;;;;;;;48.70;17.38;;;1.20;99.90;;;;;;6286197;22;20015;-78
2023/03/10 10:52:24;;;;;;;57.15;19.55;;;1.20;99.90;;;;;;6312049;22;20036;-77
2023/03/10 10:54:57;;;;;;;54.42;18.50;;;1.20;99.90;;;;;;6311764;22;20010;-77
2023/03/10 10:57:32;;;;;;;50.17;17.60;;;1.10;99.90;;;;;;6311881;22;20408;-78
2023/03/10 11:00:28;;;;;;;51.15;18.13;;;1.20;99.90;;;;;;6311668;22;20011;-79
2023/03/10 11:02:54;;;;;;;50.60;16.80;;;1.10;99.90;;;;;;6339648;22;20011;-77
2023/03/10 11:05:24;;;;;;;51.80;18.60;;;1.10;99.90;;;;;;6338915;22;20014;-77
2023/03/10 11:07:50;;;;;;;58.97;18.42;;;1.10;99.90;;;;;;6339314;22;20011;-78
2023/03/10 11:10:29;;;;;;;54.03;17.52;;;1.10;99.90;;;;;;6340113;22;20089;-77
2023/03/10 11:13:10;;;;;;;52.83;16.88;;;1.10;99.90;;;;;;6311783;22;20011;-78
2023/03/10 11:15:41;;;;;;;46.08;14.65;;;1.10;99.90;;;;;;6339648;22;20007;-78
2023/03/10 11:18:17;;;;;;;57.95;19.17;;;1.10;99.90;;;;;;6311513;22;20018;-76
2023/03/10 11:21:02;;;;;;;58.22;19.02;;;1.10;99.90;;;;;;6310984;22;20014;-77
2023/03/10 11:23:38;;;;;;;46.50;16.30;;;1.10;99.90;;;;;;6285025;22;20010;-76
2023/03/10 11:26:11;;;;;;;53.88;17.15;;;1.20;99.90;;;;;;6338834;22;20467;-78
2023/03/10 11:29:12;;;;;;;51.88;16.42;;;1.20;99.90;;;;;;6311143;22;20093;-78
2023/03/10 11:32:12;;;;;;;57.03;16.85;;;1.20;99.90;;;;;;6252415;22;20018;-78
2023/03/10 11:34:50;;;;;;;54.90;17.88;;;1.30;99.90;;;;;;6311963;22;20083;-77
2023/03/10 11:37:34;;;;;;;53.83;16.92;;;1.40;99.90;;;;;;6311240;22;20007;-77
2023/03/10 11:40:06;;;;;;;53.58;17.60;;;1.40;99.90;;;;;;6311165;22;20043;-77
2023/03/10 11:42:56;;;;;;;53.58;17.35;;;1.40;99.90;;;;;;6311130;22;20011;-78
2023/03/10 11:45:36;;;;;;;41.22;14.32;;;1.50;99.90;;;;;;6285662;22;20450;-77
2023/03/10 11:48:27;;;;;;;48.00;16.40;;;1.50;99.90;;;;;;6311820;22;20370;-77
2023/03/10 11:50:58;;;;;;;47.33;15.63;;;1.50;99.90;;;;;;6310795;22;20069;-77
2023/03/10 11:53:37;;;;;;;47.15;16.10;;;1.50;99.90;;;;;;6338945;22;20007;-78
2023/03/10 11:56:04;;;;;;;47.75;15.63;;;1.50;99.90;;;;;;6310842;22;20007;-78
2023/03/10 11:58:39;;;;;;;45.15;16.23;;;1.50;99.90;;;;;;6339207;22;20010;-77
2023/03/10 12:01:06;;;;;;;46.35;16.00;;;1.50;99.90;;;;;;6311245;22;20325;-77
2023/03/10 12:03:38;;;;;;;44.17;15.60;;;1.60;99.90;;;;;;6339413;22;20071;-77
2023/03/10 12:06:07;;;;;;;47.63;16.20;;;1.60;99.90;;;;;;6311093;22;20053;-78
2023/03/10 12:08:34;;;;;;;46.17;15.98;;;1.70;99.90;;;;;;6310907;22;20015;-78
2023/03/10 12:11:03;;;;;;;40.88;15.82;;;1.70;99.90;;;;;;6312018;22;20010;-78
2023/03/10 12:13:39;;;;;;;46.95;16.95;;;1.70;99.90;;;;;;6285706;22;20399;-78
2023/03/10 12:16:06;;;;;;;44.83;16.80;;;1.70;99.90;;;;;;6310901;22;20055;-77
2023/03/10 12:18:32;;;;;;;45.05;16.63;;;1.70;99.90;;;;;;6339231;22;20440;-77
2023/03/10 12:21:14;;;;;;;44.78;16.45;;;1.80;99.90;;;;;;6339582;22;20010;-78
2023/03/10 12:23:46;;;;;;;45.58;15.88;;;1.80;99.90;;;;;;6311121;22;20011;-79
2023/03/10 12:26:12;;;;;;;44.83;16.25;;;1.80;99.90;;;;;;6312020;22;20332;-78
2023/03/10 12:28:38;;;;;;;44.20;15.82;;;1.80;99.90;;;;;;6338899;22;20373;-78
2023/03/10 12:31:36;;;;;;;41.13;15.25;;;1.80;99.90;;;;;;6285359;22;20018;-79
2023/03/10 12:34:22;;;;;;;39.67;14.95;;;1.90;99.90;;;;;;6287578;22;20087;-78
2023/03/10 12:37:04;;;;;;;42.40;15.68;;;1.90;99.90;;;;;;6287563;22;20011;-79
2023/03/10 12:39:31;;;;;;;38.15;15.35;;;1.90;99.90;;;;;;6313494;22;20018;-77
2023/03/10 12:42:02;;;;;;;39.38;15.40;;;1.80;99.90;;;;;;6287378;22;20389;-78
2023/03/10 12:44:35;;;;;;;41.00;14.23;;;1.80;99.90;;;;;;6287566;22;20065;-79
2023/03/10 12:47:07;;;;;;;38.47;15.27;;;1.80;99.90;;;;;;6287476;22;20015;-79
2023/03/10 12:49:46;;;;;;;40.53;14.68;;;1.80;99.90;;;;;;6312988;22;20018;-78
2023/03/10 12:52:47;;;;;;;40.95;15.02;;;1.80;99.90;;;;;;6312724;22;20011;-80
2023/03/10 12:55:25;;;;;;;39.80;14.80;;;1.80;99.90;;;;;;6313017;22;20034;-80
2023/03/10 12:57:59;;;;;;;41.10;14.98;;;1.80;99.90;;;;;;6312783;22;20064;-79
2023/03/10 13:00:40;;;;;;;40.20;15.32;;;1.80;99.90;;;;;;6287033;22;20033;-78
2023/03/10 13:03:08;;;;;;;45.63;15.57;;;1.80;99.90;;;;;;6340457;22;20021;-77
2023/03/10 13:05:41;;;;;;;41.20;15.32;;;1.80;99.90;;;;;;6312682;22;20046;-79
2023/03/10 13:08:24;;;;;;;37.47;14.73;;;1.80;99.90;;;;;;6287207;22;20022;-78
2023/03/10 13:10:55;;;;;;;39.95;15.02;;;1.70;99.90;;;;;;6312855;22;20011;-79
2023/03/10 13:13:24;;;;;;;37.50;15.40;;;1.70;99.90;;;;;;6312617;22;20403;-77
2023/03/10 13:15:58;;;;;;;42.55;16.08;;;1.60;99.90;;;;;;6312788;22;20339;-79
2023/03/10 13:18:24;;;;;;;34.22;13.77;;;1.50;99.90;;;;;;6312593;22;20015;-78
2023/03/10 13:20:49;;;;;;;42.42;15.50;;;1.50;99.90;;;;;;6312739;22;20025;-78
2023/03/10 13:23:27;;;;;;;41.50;16.83;;;1.50;99.90;;;;;;6312894;22;20077;-79
2023/03/10 13:25:54;;;;;;;39.25;14.65;;;1.50;99.90;;;;;;6287075;22;20011;-77
2023/03/10 13:28:21;;;;;;;40.33;15.02;;;1.50;99.90;;;;;;6312794;22;20486;-78
2023/03/10 13:30:47;;;;;;;45.80;15.10;;;1.40;99.90;;;;;;6313297;22;20079;-78
2023/03/10 13:33:19;;;;;;;44.88;15.63;;;1.40;99.90;;;;;;6312861;22;20377;-78
2023/03/10 13:35:46;;;;;;;41.67;15.98;;;1.40;99.90;;;;;;6316743;22;20007;-74
2023/03/10 13:38:20;;;;;;;39.13;15.45;;;1.40;99.90;;;;;;6317797;22;20082;-75
2023/03/10 13:40:58;;;;;;;43.70;16.05;;;1.40;99.90;;;;;;6315230;22;20014;-78
2023/03/10 13:43:34;;;;;;;41.83;15.93;;;1.40;99.90;;;;;;6313236;22;20085;-78
2023/03/10 13:46:02;;;;;;;41.83;14.90;;;1.40;99.90;;;;;;6313256;22;20089;-79
2023/03/10 13:48:30;;;;;;;39.10;14.55;;;1.40;99.90;;;;;;6312853;22;20448;-79
2023/03/10 13:51:29;;;;;;;38.50;15.38;;;1.40;99.90;;;;;;6313066;22;20082;-79
2023/03/10 13:54:00;;;;;;;37.67;15.32;;;1.40;99.90;;;;;;6311879;22;20006;-78
2023/03/10 13:56:32;;;;;;;41.17;15.60;;;1.30;99.90;;;;;;6287094;22;20052;-78
2023/03/10 13:59:00;;;;;;;41.47;16.42;;;1.30;99.90;;;;;;6312750;22;20470;-78
2023/03/10 14:01:30;;;;;;;47.33;17.40;;;1.30;99.90;;;;;;6286690;22;20014;-78
2023/03/10 14:04:01;;;;;;;47.50;17.88;;;1.30;99.90;;;;;;6340288;22;20011;-80
2023/03/10 14:06:29;;;;;;;54.50;18.55;;;1.30;99.90;;;;;;6341841;22;20354;-79
2023/03/10 14:08:54;;;;;;;53.70;18.92;;;1.30;99.90;;;;;;6312169;22;20072;-78
2023/03/10 14:11:22;;;;;;;52.20;20.13;;;1.20;99.90;;;;;;6313422;22;20351;-77
2023/03/10 14:13:48;;;;;;;49.30;19.20;;;1.20;99.90;;;;;;6312439;22;20010;-80
2023/03/10 14:16:13;;;;;;;54.00;19.00;;;1.20;99.90;;;;;;6312641;22;20080;-78
2023/03/10 14:18:41;;;;;;;49.40;18.42;;;1.10;99.90;;;;;;6312233;22;20023;-79
2023/03/10 14:21:29;;;;;;;59.97;19.58;;;1.10;99.90;;;;;;6286416;22;20344;-78
2023/03/10 14:24:02;;;;;;;55.40;19.55;;;1.00;99.90;;;;;;6340268;22;20015;-78
2023/03/10 14:26:28;;;;;;;47.85;17.35;;;1.00;99.90;;;;;;6312425;22;20332;-78
2023/03/10 14:28:54;;;;;;;59.42;19.40;;;0.90;99.90;;;;;;6312303;22;20007;-78
2023/03/10 14:31:23;;;;;;;63.67;19.58;;;1.00;99.90;;;;;;6286416;22;20391;-80
2023/03/10 14:33:50;;;;;;;62.35;18.65;;;1.00;99.90;;;;;;6312078;22;20014;-79
2023/03/10 14:36:16;;;;;;;58.10;20.73;;;0.90;99.90;;;;;;6312173;22;20010;-78
2023/03/10 14:38:44;;;;;;;72.07;20.92;;;0.90;99.90;;;;;;6312476;22;20022;-78
2023/03/10 14:41:12;;;;;;;72.50;21.48;;;0.90;99.90;;;;;;6340070;22;20010;-78
2023/03/10 14:43:38;;;;;;;69.03;20.60;;;0.90;99.90;;;;;;6312043;22;20045;-78
2023/03/10 14:46:04;;;;;;;67.60;20.42;;;0.90;99.90;;;;;;6339398;22;20444;-77
2023/03/10 14:48:34;;;;;;;53.05;16.77;;;0.90;99.90;;;;;;6339143;22;20018;-78
2023/03/10 14:51:00;;;;;;;50.90;16.33;;;0.90;99.90;;;;;;6311555;22;20015;-77
2023/03/10 14:53:26;;;;;;;50.30;15.27;;;0.80;99.90;;;;;;6339775;22;20011;-76
2023/03/10 14:55:57;;;;;;;48.83;15.02;;;0.80;99.90;;;;;;6311600;22;20095;-78
2023/03/10 14:58:30;;;;;;;41.83;14.20;;;0.90;99.90;;;;;;6311722;22;20042;-79
2023/03/10 15:00:56;;;;;;;37.55;13.32;;;0.90;99.90;;;;;;6339036;22;20011;-78
2023/03/10 15:03:21;;;;;;;24.95;8.88;;;0.90;99.90;;;;;;6311272;22;20082;-77
2023/03/10 15:05:47;;;;;;;37.38;12.73;;;0.90;99.90;;;;;;6339372;22;20006;-78
2023/03/10 15:08:13;;;;;;;34.75;11.68;;;0.90;99.90;;;;;;6311516;22;20015;-78
2023/03/10 15:10:46;;;;;;;31.92;11.07;;;0.90;99.90;;;;;;6311284;22;20014;-78
2023/03/10 15:13:13;;;;;;;18.73;7.22;;;0.80;99.90;;;;;;6339842;22;20320;-77
2023/03/10 15:15:42;;;;;;;21.40;7.78;;;0.80;99.90;;;;;;6285427;22;20034;-78
2023/03/10 15:18:12;;;;;;;23.38;9.25;;;0.80;99.90;;;;;;6339483;22;20015;-78
2023/03/10 15:20:37;;;;;;;19.98;7.20;;;0.70;99.90;;;;;;6339229;22;20355;-78
2023/03/10 15:23:03;;;;;;;17.85;7.30;;;0.60;99.90;;;;;;6311317;22;20087;-77
2023/03/10 15:25:29;;;;;;;24.95;9.13;;;0.60;99.90;;;;;;6311231;22;20089;-78
2023/03/10 15:27:54;;;;;;;28.05;9.80;;;0.70;99.90;;;;;;6311231;22;20017;-80
2023/03/10 15:30:27;;;;;;;19.20;8.27;;;0.60;99.90;;;;;;6311152;22;20006;-77
2023/03/10 15:32:53;;;;;;;22.73;9.30;;;0.60;99.90;;;;;;6339082;22;20011;-77
2023/03/10 15:35:20;;;;;;;21.75;8.05;;;0.60;99.90;;;;;;6338815;22;20007;-77
2023/03/10 15:37:47;;;;;;;22.77;7.40;;;0.60;99.90;;;;;;6339069;22;20344;-79
2023/03/10 15:40:27;;;;;;;20.38;7.60;;;0.60;99.90;;;;;;6311043;22;20390;-78
2023/03/10 15:42:56;;;;;;;18.13;5.13;;;0.50;99.90;;;;;;6339172;22;20033;-79
2023/03/10 15:45:23;;;;;;;16.77;6.15;;;0.50;99.90;;;;;;6339526;22;20060;-78
2023/03/10 15:47:49;;;;;;;20.35;7.43;;;0.50;99.90;;;;;;6311063;22;20502;-78
2023/03/10 15:50:18;;;;;;;19.98;6.40;;;0.50;99.90;;;;;;6310942;22;20006;-82
2023/03/10 15:52:48;;;;;;;19.48;7.65;;;0.50;99.90;;;;;;6311263;22;20042;-80
2023/03/10 15:55:15;;;;;;;16.40;7.15;;;0.50;99.90;;;;;;6338647;22;20018;-78
2023/03/10 15:57:42;;;;;;;19.45;6.88;;;0.40;99.90;;;;;;6310715;22;20064;-76
2023/03/10 16:00:08;;;;;;;26.05;8.35;;;0.40;99.90;;;;;;6338762;22;20403;-77
2023/03/10 16:02:34;;;;;;;21.48;7.85;;;0.50;99.90;;;;;;6310651;22;20038;-78
2023/03/10 16:05:00;;;;;;;26.90;7.88;;;0.50;99.90;;;;;;6338521;22;20148;-79
2023/03/10 16:07:25;;;;;;;27.80;8.48;;;0.50;99.90;;;;;;6310715;22;20019;-79
2023/03/10 16:09:51;;;;;;;26.45;9.13;;;0.50;99.90;;;;;;6311126;22;20064;-77
2023/03/10 16:12:17;;;;;;;29.95;9.82;;;0.50;99.90;;;;;;6339176;22;20045;-79
2023/03/10 16:14:42;;;;;;;24.13;8.63;;;0.50;99.90;;;;;;6311179;22;20017;-78
2023/03/10 16:17:10;;;;;;;34.08;10.02;;;0.50;99.90;;;;;;6311360;22;20085;-78
2023/03/10 16:19:38;;;;;;;28.27;9.18;;;0.60;99.90;;;;;;6311451;22;20082;-76
2023/03/10 16:22:04;;;;;;;33.90;10.82;;;0.60;99.90;;;;;;6339275;22;20007;-76
2023/03/10 16:24:30;;;;;;;38.72;11.25;;;0.60;99.90;;;;;;6311429;22;20341;-78
2023/03/10 16:26:56;;;;;;;35.90;10.85;;;0.60;99.90;;;;;;6339172;22;20015;-77
2023/03/10 16:29:21;;;;;;;26.95;8.85;;;0.60;99.90;;;;;;6338355;22;20014;-75
2023/03/10 16:31:47;;;;;;;27.20;9.30;;;0.50;99.90;;;;;;6310573;22;20046;-76
2023/03/10 16:34:13;;;;;;;32.00;10.05;;;0.50;99.90;;;;;;6310903;22;20014;-76
2023/03/10 16:36:39;;;;;;;26.83;9.23;;;0.50;99.90;;;;;;6311018;22;20033;-77
2023/03/10 16:39:09;;;;;;;20.65;6.15;;;0.50;99.90;;;;;;6338736;22;20034;-79
2023/03/10 16:41:34;;;;;;;28.05;8.35;;;0.50;99.90;;;;;;6310840;22;20432;-79
2023/03/10 16:44:05;;;;;;;25.13;8.50;;;0.50;99.90;;;;;;6312598;22;20054;-79
2023/03/10 16:46:31;;;;;;;25.45;7.40;;;0.50;99.90;;;;;;6285226;22;20015;-76
2023/03/10 16:48:59;;;;;;;20.30;6.93;;;0.40;99.90;;;;;;6310850;22;20022;-78
2023/03/10 16:51:24;;;;;;;17.83;6.20;;;0.40;99.90;;;;;;6310821;22;20018;-79
2023/03/10 16:53:51;;;;;;;23.83;8.50;;;0.40;99.90;;;;;;6310764;22;20014;-78
2023/03/10 16:56:17;;;;;;;30.95;7.95;;;0.40;99.90;;;;;;6310571;22;20110;-77
2023/03/10 16:58:43;;;;;;;27.17;6.82;;;0.40;99.90;;;;;;6310581;22;20030;-77
2023/03/10 17:01:09;;;;;;;27.15;8.30;;;0.40;99.90;;;;;;6310444;22;20086;-78
2023/03/10 17:03:38;;;;;;;26.17;7.55;;;0.40;99.90;;;;;;6310907;22;20060;-78
2023/03/10 17:06:10;;;;;;;24.00;8.23;;;0.40;99.90;;;;;;6338494;22;20055;-79
2023/03/10 17:08:37;;;;;;;22.48;7.57;;;0.40;99.90;;;;;;6310930;22;20011;-77